Terminal Aerodrome Forecast
Issued by NWS

Home | Current Version | Previous Version | Text Only | Print | Product List | Glossary On
Versions: 1 2 3 4 5 6 7 8 9 10 11 12 13 14 15 16
000
FTUS44 KLIX 220531
TAFHDC
TAF
KHDC 220531Z 2206/2306 16005KT 5SM BR BKN009
     FM220900 15004KT 2SM BR BKN006
     FM221500 16007KT P6SM BKN020
     FM221800 16008KT P6SM SCT025 BKN040
     FM230300 15006KT P6SM BKN030=

USA.gov is the U.S. government's official web portal to all federal, state and local government web resources and services.